Ana Sayfa
METAR-TAF:

METAR-TAF

Havaalanları :

Tarakan, Endonezya

Enlem: 03-19-36N, Boylam: 117-33-56E, yükseklik: 6 m

METAR: eksik

Saat: 10:35 (03:35 UTC)

Tahmin

Rapor saat 23:00 UTC de 4 saat ve 35 dakika önce yapıldı.
Ayın 24'si saat 00 UTC'den ayın 24'si saat 12 UTC'ye kadar geçerli Tahmin
Rüzgar batıdan 7 kt
Görüş mesafesi: 8000 m
1500 ft yükseklikte parçalı çok bulutlu
Dönüşüyor
ayın 24'si saat 02 UTC'den ayın 24'si saat 04 UTC'ye kadar
1500 ft yükseklikte parçalı bulutlu
Dönüşüyor
ayın 24'si saat 09 UTC'den ayın 24'si saat 11 UTC'ye kadar
Rüzgar doğudan 7 kt

TAF: WAQQ 232300Z 2400/2412 28007KT 8000 BKN015 BECMG 2402/2404 SCT015 BECMG 2409/2411 10007KT

4.000'den fazla havaalanı için hava durumu gözlemleri ve tahminleri (METAR ve TAF raporları).

Kullanılabilir istasyonlar harita üzerinde sarı ve kırmızı noktalarla gösterilir.

İstasyonun adını görmek için fareyi noktanın üzerinde gezdirin.

Sonrasında hava gözlem ve tahminlerini görmek için tıklayın.

Haritayı değiştirmek için: yaklaştırmak için siyah artı işaretli yeşil düğmeye ve uzaklaştırmak için de eksi işaretli düğmeye hızla tıklayın; bitişik haritalar için yeşil okları kullanın.


METAR-TAF: